CheckWX is a tool to help pilots better visualize weather data.  It is not intended as a substitute for an official pre-flight weather briefing.

19:52:32 UTC

SCIE METAR
Carriel Sur Airport
Concepcion, Chile
Current

53 mins ago

SCIE 161900Z 23011KT 200V270 9999 FEW010 21/15 Q1010
Observed
Feb-16 @ 19:00 UTC
Wind
  • 230° at 11 KTS
Visibility
10,000+ meters
Flight Rules
VFR
Cloud Levels
  • Few at 1,000' AGL
Temperature
21°C / 70°F
Dewpoint
15°C / 59°F
Humidity
69%
Altimeter
29.82" Hg
Pressure
1009.92 hPa
Previous

2 hours ago

SCIE 161800Z 24012KT 190V260 9999 FEW012 21/15 Q1011
Observed
Feb-16 @ 18:00 UTC
Wind
  • 240° at 12 KTS
Visibility
10,000+ meters
Flight Rules
VFR
Cloud Levels
  • Few at 1,200' AGL
Temperature
21°C / 70°F
Dewpoint
15°C / 59°F
Humidity
69%
Altimeter
29.85" Hg
Pressure
1010.92 hPa
Previous

3 hours ago

SCIE 161700Z 23010KT 210V280 CAVOK 21/14 Q1011
Observed
Feb-16 @ 17:00 UTC
Wind
  • 230° at 10 KTS
Visibility
10,000+ meters
Flight Rules
VFR
Cloud Levels
  • Clear skies
Temperature
21°C / 70°F
Dewpoint
14°C / 57°F
Humidity
64%
Altimeter
29.85" Hg
Pressure
1010.92 hPa